Time;durP1;ratioP1;P1;durP2;ratioP2;P2;SDS_P1;SDS_P2;PMS_P1;PMS_P2;Temp;Humidity;BMP_temperature;BMP_pressure;BME280_temperature;BME280_humidity;BME280_pressure;Samples;Min_cycle;Max_cycle;Signal;HPM_P1;HPM_P2
2021/09/26 00:02:38;;;;;;;17.10;12.60;;;;;;;16.66;77.65;100181.86;253390;1107;117986;-69
2021/09/26 00:07:42;;;;;;;15.38;13.50;;;;;;;16.71;77.77;100187.27;254262;1107;115750;-70
2021/09/26 00:12:46;;;;;;;19.58;13.70;;;;;;;16.69;77.67;100184.02;253064;1107;115550;-69
2021/09/26 00:17:50;;;;;;;16.43;14.75;;;;;;;16.69;77.81;100192.10;253887;1106;116464;-69
2021/09/26 00:22:53;;;;;;;16.03;13.35;;;;;;;16.68;77.98;100207.44;253317;1107;116715;-69
2021/09/26 00:27:56;;;;;;;19.30;14.53;;;;;;;16.69;77.94;100202.87;253516;1102;116580;-69
2021/09/26 00:32:59;;;;;;;18.98;14.10;;;;;;;16.70;78.21;100204.48;253799;1102;115849;-67
2021/09/26 00:38:02;;;;;;;16.33;14.45;;;;;;;16.70;77.83;100205.30;253681;1103;115958;-68
2021/09/26 00:43:05;;;;;;;17.10;14.53;;;;;;;16.66;77.94;100201.51;254570;1107;115642;-69
2021/09/26 00:48:09;;;;;;;20.35;14.98;;;;;;;16.60;77.84;100212.48;253777;1107;115584;-69
2021/09/26 00:53:18;;;;;;;15.20;13.53;;;;;;;16.56;77.91;100208.69;253821;1102;115203;-71
2021/09/26 00:58:21;;;;;;;;;;;;;;;16.59;78.28;100213.55;253715;1107;115505;-70
2021/09/26 01:03:25;;;;;;;18.43;13.63;;;;;;;16.61;78.51;100211.41;254103;1107;103022;-70
2021/09/26 01:08:43;;;;;;;18.08;14.88;;;;;;;16.61;78.22;100216.80;254183;1107;115503;-70
2021/09/26 01:14:02;;;;;;;15.78;12.95;;;;;;;16.56;78.16;100220.27;254115;1107;115883;-69
2021/09/26 01:19:24;;;;;;;18.68;13.78;;;;;;;16.57;78.07;100221.89;254546;1107;115190;-69
2021/09/26 01:24:53;;;;;;;16.95;14.28;;;;;;;16.51;77.84;100225.62;253043;1107;116025;-69
2021/09/26 01:30:20;;;;;;;17.18;13.08;;;;;;;16.41;78.13;100218.33;256280;1106;115005;-70
2021/09/26 01:35:26;;;;;;;15.55;13.18;;;;;;;16.40;78.03;100218.59;256281;1107;115510;-70
2021/09/26 01:40:34;;;;;;;16.88;12.83;;;;;;;16.43;78.25;100231.52;255525;1102;115652;-69
2021/09/26 01:45:49;;;;;;;16.90;13.18;;;;;;;16.39;77.91;100231.23;254803;1106;115747;-68
2021/09/26 01:50:59;;;;;;;14.43;12.20;;;;;;;16.36;77.94;100229.05;253538;1107;115891;-69
2021/09/26 01:56:08;;;;;;;13.15;11.80;;;;;;;16.34;77.88;100225.81;253651;1107;115477;-67
2021/09/26 02:01:15;;;;;;;12.50;11.00;;;;;;;16.33;78.02;100234.95;253520;1106;115742;-69
2021/09/26 02:06:17;;;;;;;15.00;13.30;;;;;;;16.29;78.18;100244.61;254211;1106;116097;-69
2021/09/26 02:11:21;;;;;;;13.68;11.65;;;;;;;16.23;78.25;100247.52;253268;1107;115714;-68
2021/09/26 02:16:26;;;;;;;15.33;12.40;;;;;;;16.06;77.69;100237.74;253693;1107;115261;-68
2021/09/26 02:21:31;;;;;;;14.18;11.98;;;;;;;16.01;77.91;100239.58;253864;1107;115843;-69
2021/09/26 02:26:35;;;;;;;15.38;11.28;;;;;;;15.98;78.35;100245.47;253273;1107;116136;-69
2021/09/26 02:31:39;;;;;;;13.60;11.93;;;;;;;16.00;78.43;100243.34;253414;1107;115871;-69
2021/09/26 02:36:42;;;;;;;14.23;12.83;;;;;;;15.93;78.24;100253.50;253501;1103;115571;-68
2021/09/26 02:42:07;;;;;;;12.93;11.55;;;;;;;15.82;78.26;100248.06;253329;1107;116220;-69
2021/09/26 02:47:20;;;;;;;11.90;10.60;;;;;;;15.82;78.28;100253.44;253409;1102;115729;-70
2021/09/26 02:52:24;;;;;;;15.13;12.67;;;;;;;15.87;78.67;100257.23;253337;1106;115851;-69
2021/09/26 02:57:27;;;;;;;13.85;11.08;;;;;;;15.88;78.74;100261.55;253752;1107;115900;-69
2021/09/26 03:02:31;;;;;;;14.17;11.83;;;;;;;15.86;78.76;100261.80;254372;1107;115963;-69
2021/09/26 03:07:35;;;;;;;13.28;11.78;;;;;;;15.80;78.50;100260.13;254810;1107;115728;-69
2021/09/26 03:12:38;;;;;;;14.15;12.30;;;;;;;15.74;78.55;100261.96;255473;1107;115886;-70
2021/09/26 03:17:43;;;;;;;15.05;11.85;;;;;;;15.76;78.75;100267.89;255240;1102;116478;-69
2021/09/26 03:22:47;;;;;;;20.95;14.98;;;;;;;15.78;78.67;100263.08;253593;1107;116186;-69
2021/09/26 03:27:51;;;;;;;17.18;13.20;;;;;;;15.71;78.35;100267.03;254346;1107;116612;-68
2021/09/26 03:32:54;;;;;;;16.68;12.93;;;;;;;15.60;78.33;100266.12;256104;1106;116604;-68
2021/09/26 03:37:57;;;;;;;16.85;13.63;;;;;;;15.57;78.70;100263.16;254925;1107;116764;-68
2021/09/26 03:43:01;;;;;;;14.93;11.68;;;;;;;15.57;78.67;100257.78;256156;1107;115710;-68
2021/09/26 03:48:07;;;;;;;17.18;13.03;;;;;;;15.54;78.44;100264.44;254071;1107;116145;-68
2021/09/26 03:53:10;;;;;;;13.03;11.65;;;;;;;15.50;78.45;100266.83;254579;1107;116157;-68
2021/09/26 03:58:14;;;;;;;14.40;12.18;;;;;;;15.45;78.41;100265.95;255686;1102;115770;-68
2021/09/26 04:03:17;;;;;;;15.03;12.28;;;;;;;15.36;78.11;100265.59;253337;1107;115979;-68
2021/09/26 04:08:20;;;;;;;16.88;12.00;;;;;;;15.23;78.39;100254.45;254557;1101;116218;-68
2021/09/26 04:13:22;;;;;;;12.38;11.15;;;;;;;15.23;78.03;100267.88;254749;1106;116269;-69
2021/09/26 04:18:25;;;;;;;15.17;13.43;;;;;;;15.18;78.63;100263.27;253938;1107;115813;-69
2021/09/26 04:23:28;;;;;;;15.33;13.65;;;;;;;15.12;78.61;100257.02;253859;1107;115717;-71
2021/09/26 04:28:31;;;;;;;16.17;12.37;;;;;;;15.11;78.80;100274.19;253500;1107;208437;-71
2021/09/26 04:33:34;;;;;;;14.35;12.35;;;;;;;15.10;78.52;100272.56;253202;1107;116278;-71
2021/09/26 04:38:38;;;;;;;18.18;13.13;;;;;;;15.09;79.21;100273.63;253361;1107;116056;-71
2021/09/26 04:43:41;;;;;;;17.95;12.58;;;;;;;15.11;78.78;100279.56;253377;1103;115742;-68
2021/09/26 04:48:44;;;;;;;20.38;12.58;;;;;;;15.13;79.14;100282.00;253185;1107;116008;-70
2021/09/26 04:53:47;;;;;;;20.45;11.60;;;;;;;14.95;78.32;100280.45;254077;1107;116216;-70
2021/09/26 04:58:50;;;;;;;21.88;14.33;;;;;;;14.85;78.77;100290.25;253288;1107;116256;-70
2021/09/26 05:03:53;;;;;;;17.73;14.20;;;;;;;14.80;78.86;100299.86;253288;1101;115611;-70
2021/09/26 05:08:57;;;;;;;14.40;12.88;;;;;;;14.85;79.48;100307.16;253104;1107;115572;-69
2021/09/26 05:14:01;;;;;;;23.77;14.93;;;;;;;14.91;79.11;100306.17;253186;1107;115557;-69
2021/09/26 05:19:05;;;;;;;20.65;17.13;;;;;;;14.97;78.96;100302.50;254205;1106;115627;-70
2021/09/26 05:24:08;;;;;;;21.53;16.15;;;;;;;15.00;79.49;100304.66;253222;1107;115773;-70
2021/09/26 05:29:12;;;;;;;21.55;15.13;;;;;;;15.13;79.74;100304.30;253310;1107;116164;-70
2021/09/26 05:34:15;;;;;;;20.60;15.27;;;;;;;15.19;79.69;100307.05;253356;1107;115580;-68
2021/09/26 05:39:20;;;;;;;21.77;18.73;;;;;;;15.25;79.70;100300.67;253880;1107;116551;-68
2021/09/26 05:44:25;;;;;;;22.48;15.83;;;;;;;15.34;79.77;100310.70;255113;1106;116222;-69
2021/09/26 05:49:28;;;;;;;17.53;15.30;;;;;;;15.44;79.64;100302.76;256208;1107;116118;-69
2021/09/26 05:54:32;;;;;;;22.03;16.60;;;;;;;15.59;79.76;100309.39;254091;1107;116342;-68
2021/09/26 05:59:38;;;;;;;22.35;17.90;;;;;;;15.75;79.91;100309.28;255561;1107;116647;-69
2021/09/26 06:04:41;;;;;;;19.80;17.63;;;;;;;15.92;79.81;100311.84;255529;1107;116256;-69
2021/09/26 06:09:47;;;;;;;22.35;17.98;;;;;;;16.07;80.16;100313.86;253919;1102;116971;-69
2021/09/26 06:14:55;;;;;;;23.65;17.63;;;;;;;16.23;80.15;100323.66;253665;1107;116000;-68
2021/09/26 06:20:00;;;;;;;24.73;17.23;;;;;;;16.36;80.00;100333.17;254334;1107;116816;-68
2021/09/26 06:25:05;;;;;;;21.73;17.90;;;;;;;16.49;79.83;100341.63;253303;1103;115904;-71
2021/09/26 06:30:09;;;;;;;22.60;20.38;;;;;;;16.57;79.99;100345.69;253125;1107;116480;-68
2021/09/26 06:35:13;;;;;;;20.68;18.48;;;;;;;16.67;79.70;100356.56;254372;1107;116687;-70
2021/09/26 06:40:16;;;;;;;22.13;18.35;;;;;;;16.78;80.17;100360.95;253381;1107;116346;-70
2021/09/26 06:45:19;;;;;;;23.70;19.00;;;;;;;16.90;79.99;100355.34;253600;1107;116578;-69
2021/09/26 06:50:23;;;;;;;22.10;18.45;;;;;;;16.86;79.69;100366.89;253926;1107;117188;-70
2021/09/26 06:55:26;;;;;;;24.18;20.90;;;;;;;16.97;79.99;100365.89;253738;1107;116711;-69
2021/09/26 07:00:29;;;;;;;22.15;19.58;;;;;;;17.14;79.69;100374.58;253349;1107;116492;-69
2021/09/26 07:05:32;;;;;;;25.68;22.70;;;;;;;17.23;79.79;100374.91;253569;1107;115933;-69
2021/09/26 07:10:36;;;;;;;24.93;22.33;;;;;;;17.38;79.97;100385.76;253712;1103;115874;-69
2021/09/26 07:15:40;;;;;;;21.05;18.45;;;;;;;17.52;80.05;100386.88;253521;1107;116405;-67
2021/09/26 07:20:44;;;;;;;21.05;18.85;;;;;;;17.58;79.59;100399.30;256419;1107;116063;-68
2021/09/26 07:25:47;;;;;;;19.15;16.93;;;;;;;17.59;79.46;100395.53;255294;1106;115963;-68
2021/09/26 07:30:52;;;;;;;22.33;19.93;;;;;;;17.75;79.77;100388.31;255750;1107;115600;-68
2021/09/26 07:35:58;;;;;;;19.80;17.80;;;;;;;17.95;79.79;100403.74;256197;1106;116018;-69
2021/09/26 07:41:01;;;;;;;20.28;18.20;;;;;;;18.02;79.36;100399.72;255269;1103;115250;-70
2021/09/26 07:46:05;;;;;;;22.75;18.20;;;;;;;18.15;79.35;100415.37;256001;1107;115762;-69
2021/09/26 07:51:11;;;;;;;17.43;15.70;;;;;;;18.24;79.13;100420.23;255148;1107;115307;-69
2021/09/26 07:56:14;;;;;;;16.98;14.85;;;;;;;18.33;78.85;100422.14;253839;1103;115564;-68
2021/09/26 08:01:20;;;;;;;20.00;16.87;;;;;;;18.42;78.83;100417.81;255696;1107;115309;-67
2021/09/26 08:06:23;;;;;;;21.65;17.25;;;;;;;18.50;78.62;100419.17;254220;1107;115447;-68
2021/09/26 08:11:26;;;;;;;23.30;18.90;;;;;;;18.63;78.82;100421.37;255380;1107;115568;-69
2021/09/26 08:16:32;;;;;;;22.05;17.98;;;;;;;18.80;78.55;100421.06;254906;1106;115048;-68
2021/09/26 08:21:35;;;;;;;25.03;18.00;;;;;;;18.98;78.07;100417.78;253386;1107;115139;-68
2021/09/26 08:26:38;;;;;;;19.25;15.90;;;;;;;19.18;78.00;100412.34;253173;1107;116287;-68
2021/09/26 08:31:41;;;;;;;15.33;13.33;;;;;;;19.36;77.97;100420.92;254047;1107;117093;-68
2021/09/26 08:36:44;;;;;;;17.85;15.10;;;;;;;19.57;77.31;100427.11;254238;1107;115687;-68
2021/09/26 08:41:55;;;;;;;19.33;15.88;;;;;;;19.71;77.14;100430.81;253140;1107;115967;-68
2021/09/26 08:46:59;;;;;;;19.60;14.60;;;;;;;19.77;76.83;100427.00;253166;1107;115824;-67
2021/09/26 08:52:05;;;;;;;16.80;14.85;;;;;;;19.91;76.32;100436.11;253361;1106;116623;-69
2021/09/26 08:57:09;;;;;;;14.77;13.30;;;;;;;19.99;76.30;100429.30;253524;1107;116029;-69
2021/09/26 09:02:15;;;;;;;18.80;13.63;;;;;;;20.05;75.82;100431.70;253176;1106;116215;-68
2021/09/26 09:07:22;;;;;;;17.85;15.88;;;;;;;20.13;75.35;100430.30;253838;1107;115870;-70
2021/09/26 09:12:28;;;;;;;14.78;13.28;;;;;;;20.23;74.99;100416.68;253658;1107;115760;-70
2021/09/26 09:17:31;;;;;;;18.80;16.50;;;;;;;20.31;74.91;100426.91;253161;1107;116616;-68
2021/09/26 09:22:37;;;;;;;13.73;12.43;;;;;;;20.41;74.51;100434.19;256230;1106;115664;-69
2021/09/26 09:27:41;;;;;;;14.38;12.83;;;;;;;20.43;73.98;100432.02;254098;1101;115678;-69
2021/09/26 09:32:55;;;;;;;16.20;13.83;;;;;;;20.53;74.45;100433.81;253121;1107;116093;-70
2021/09/26 09:37:59;;;;;;;19.08;13.88;;;;;;;20.49;73.76;100428.95;253161;1107;115832;-69
2021/09/26 09:43:11;;;;;;;15.35;13.75;;;;;;;20.61;73.58;100434.02;256226;1106;115987;-69
2021/09/26 09:48:31;;;;;;;12.25;10.98;;;;;;;20.69;73.41;100438.83;255487;1107;115851;-68
2021/09/26 09:53:36;;;;;;;12.73;11.53;;;;;;;20.80;73.43;100442.23;253766;1107;115929;-69
2021/09/26 09:58:50;;;;;;;14.38;10.15;;;;;;;20.83;73.07;100442.48;256162;1107;115911;-69
2021/09/26 10:03:56;;;;;;;13.70;12.27;;;;;;;20.92;72.45;100442.67;254400;1106;116694;-68
2021/09/26 10:09:04;;;;;;;14.28;11.15;;;;;;;21.01;72.24;100440.16;253304;1107;116868;-68
2021/09/26 10:14:10;;;;;;;16.55;11.10;;;;;;;21.12;72.35;100444.36;254934;1107;115466;-69
2021/09/26 10:19:21;;;;;;;11.48;10.30;;;;;;;21.24;72.16;100436.67;254516;1101;115263;-69
2021/09/26 10:24:29;;;;;;;10.13;9.13;;;;;;;21.33;71.71;100444.99;253623;1107;116243;-70
2021/09/26 10:29:36;;;;;;;8.93;7.85;;;;;;;21.77;71.37;100445.52;253167;1107;117175;-69
2021/09/26 10:34:40;;;;;;;16.57;11.90;;;;;;;21.95;70.63;100437.69;254210;1107;115705;-70
2021/09/26 10:39:44;;;;;;;12.03;10.43;;;;;;;22.06;70.32;100436.45;253098;1107;115646;-69
2021/09/26 10:45:02;;;;;;;11.57;10.37;;;;;;;22.09;69.83;100436.68;253248;1102;117860;-69
2021/09/26 10:50:14;;;;;;;14.73;9.43;;;;;;;22.01;69.39;100431.91;253500;1107;116009;-70
2021/09/26 10:55:24;;;;;;;11.90;10.70;;;;;;;22.01;69.15;100439.27;254889;1107;116441;-71
2021/09/26 11:00:36;;;;;;;11.53;10.48;;;;;;;22.03;68.72;100435.14;253125;1107;115793;-69
2021/09/26 11:05:49;;;;;;;10.63;9.53;;;;;;;22.00;67.82;100426.77;252981;1107;115439;-70
2021/09/26 11:11:01;;;;;;;7.75;7.05;;;;;;;22.00;67.51;100429.48;252951;1107;115668;-71
2021/09/26 11:16:13;;;;;;;6.13;5.53;;;;;;;22.01;67.07;100428.41;252985;1106;115602;-70
2021/09/26 11:21:35;;;;;;;11.75;7.85;;;;;;;22.01;66.29;100439.27;253107;1107;114927;-70
2021/09/26 11:26:58;;;;;;;5.35;4.88;;;;;;;21.97;65.58;100433.59;254650;1107;115794;-69
2021/09/26 11:32:07;;;;;;;6.63;5.88;;;;;;;21.90;65.62;100426.91;255204;1106;115435;-68
2021/09/26 11:37:14;;;;;;;11.57;7.27;;;;;;;21.92;65.13;100420.08;254499;1107;116463;-70
2021/09/26 11:42:35;;;;;;;12.65;8.28;;;;;;;21.97;64.81;100420.02;253410;1107;116278;-68
2021/09/26 11:47:38;;;;;;;9.43;7.85;;;;;;;22.00;64.06;100422.14;255543;1107;116604;-69
2021/09/26 11:52:44;;;;;;;6.93;6.13;;;;;;;21.98;63.75;100415.39;256462;1106;116422;-70
2021/09/26 11:57:55;;;;;;;6.30;4.60;;;;;;;22.00;63.29;100413.19;256143;1107;116917;-68
2021/09/26 12:03:12;;;;;;;7.48;3.40;;;;;;;22.03;62.31;100404.47;256230;1107;115912;-71
2021/09/26 12:08:15;;;;;;;6.88;6.18;;;;;;;22.01;62.44;100402.05;254258;1107;116309;-71
2021/09/26 12:13:21;;;;;;;6.93;6.23;;;;;;;21.96;62.09;100396.69;253474;1107;115272;-71
2021/09/26 12:18:25;;;;;;;8.95;6.00;;;;;;;21.85;62.19;100387.88;254715;1107;115619;-69
2021/09/26 12:24:08;;;;;;;16.05;4.93;;;;;;;21.70;62.80;100396.24;253438;1107;115630;-70
2021/09/26 12:29:22;;;;;;;9.58;5.73;;;;;;;21.52;62.90;100402.44;253193;1107;116060;-73
2021/09/26 12:34:27;;;;;;;6.20;5.65;;;;;;;21.42;62.51;100397.94;254292;1107;114969;-71
2021/09/26 12:39:38;;;;;;;7.68;7.05;;;;;;;21.31;62.24;100398.38;253293;1103;115472;-72
2021/09/26 12:44:43;;;;;;;7.80;5.65;;;;;;;21.26;62.31;100387.58;253281;1107;115792;-69
2021/09/26 12:49:49;;;;;;;5.88;5.28;;;;;;;21.23;62.59;100397.10;253175;1107;114909;-69
2021/09/26 12:55:00;;;;;;;6.65;5.95;;;;;;;21.20;62.43;100389.52;253209;1107;115394;-69
2021/09/26 13:00:18;;;;;;;6.75;5.25;;;;;;;21.26;62.69;100393.81;253918;1107;116205;-70
2021/09/26 13:05:36;;;;;;;7.23;6.05;;;;;;;21.30;62.92;100392.14;253923;1107;115636;-70
2021/09/26 13:10:44;;;;;;;7.48;6.78;;;;;;;21.35;62.63;100400.22;253401;1102;115798;-70
2021/09/26 13:15:48;;;;;;;5.97;5.40;;;;;;;21.32;62.08;100395.38;253195;1107;117232;-69
2021/09/26 13:21:16;;;;;;;7.45;6.08;;;;;;;21.35;62.28;100383.95;254110;1106;115943;-69
2021/09/26 13:26:26;;;;;;;8.97;6.03;;;;;;;21.28;61.71;100383.48;253453;1101;115054;-72
2021/09/26 13:31:32;;;;;;;8.75;5.05;;;;;;;21.23;61.68;100380.02;253060;1102;115377;-70
2021/09/26 13:36:59;;;;;;;5.35;4.85;;;;;;;21.18;61.43;100384.38;254663;1107;116318;-69
2021/09/26 13:42:07;;;;;;;5.10;4.60;;;;;;;21.18;61.58;100383.57;254258;1107;116131;-69
2021/09/26 13:47:11;;;;;;;4.35;3.40;;;;;;;21.22;61.63;100378.41;255675;1106;115850;-69
2021/09/26 13:52:15;;;;;;;4.00;3.70;;;;;;;21.21;61.51;100371.38;255251;1107;115369;-69
2021/09/26 13:57:20;;;;;;;4.60;4.27;;;;;;;21.11;61.08;100375.78;254841;1103;115723;-68
2021/09/26 14:02:26;;;;;;;5.83;3.55;;;;;;;21.01;61.17;100366.98;255630;1107;116633;-71
2021/09/26 14:07:29;;;;;;;5.23;3.35;;;;;;;20.84;60.93;100364.70;255129;1102;116310;-71
2021/09/26 14:12:37;;;;;;;5.30;3.90;;;;;;;20.65;60.91;100358.41;253316;1105;115038;-70
2021/09/26 14:17:43;;;;;;;3.88;3.48;;;;;;;20.53;60.87;100349.84;255152;1107;115294;-69
2021/09/26 14:22:47;;;;;;;3.03;2.73;;;;;;;20.56;60.69;100358.22;253690;1106;115491;-69
2021/09/26 14:27:52;;;;;;;4.88;2.95;;;;;;;20.58;60.20;100355.22;254449;1107;116351;-70
2021/09/26 14:32:56;;;;;;;2.48;2.18;;;;;;;20.55;59.85;100347.66;254207;1107;115628;-69
2021/09/26 14:37:59;;;;;;;4.10;3.57;;;;;;;20.53;60.00;100349.84;254334;1102;114739;-70
2021/09/26 14:43:04;;;;;;;4.25;3.85;;;;;;;20.54;60.08;100354.98;253836;1107;115403;-70
2021/09/26 14:48:08;;;;;;;3.85;3.33;;;;;;;20.51;60.03;100350.13;253084;1107;115445;-69
2021/09/26 14:53:15;;;;;;;3.25;2.98;;;;;;;20.46;59.87;100356.44;253662;1102;115395;-68
2021/09/26 14:58:18;;;;;;;4.08;3.68;;;;;;;20.39;59.97;100345.12;253987;1106;115627;-68
2021/09/26 15:03:21;;;;;;;4.00;3.60;;;;;;;20.28;60.79;100354.38;253476;1107;115471;-70
2021/09/26 15:08:25;;;;;;;3.85;3.05;;;;;;;20.13;61.06;100346.40;254327;1107;114816;-68
2021/09/26 15:13:29;;;;;;;4.20;2.93;;;;;;;19.95;61.93;100353.28;253352;1107;115987;-69
2021/09/26 15:18:35;;;;;;;4.10;3.40;;;;;;;19.76;62.19;100353.16;253585;1107;116401;-69
2021/09/26 15:23:40;;;;;;;6.28;5.68;;;;;;;19.55;62.73;100350.86;254078;1107;115352;-68
2021/09/26 15:28:43;;;;;;;10.93;9.83;;;;;;;19.33;63.08;100340.38;253599;1107;115738;-69
2021/09/26 15:33:49;;;;;;;15.60;13.95;;;;;;;19.10;63.85;100341.83;254344;1107;115983;-68
2021/09/26 15:38:54;;;;;;;16.00;14.43;;;;;;;18.91;64.43;100332.72;253329;1107;115339;-70
2021/09/26 15:43:58;;;;;;;12.28;10.95;;;;;;;18.71;64.55;100334.38;253728;1107;116301;-67
2021/09/26 15:49:02;;;;;;;9.35;8.43;;;;;;;18.53;64.96;100334.13;256353;1107;115915;-69
2021/09/26 15:54:05;;;;;;;10.78;9.70;;;;;;;18.39;65.44;100336.56;256440;1107;117471;-66
2021/09/26 15:59:08;;;;;;;7.63;6.77;;;;;;;18.21;65.63;100329.84;254229;1107;116672;-71
2021/09/26 16:04:14;;;;;;;9.93;7.13;;;;;;;18.00;66.21;100325.53;253229;1107;116927;-69
2021/09/26 16:09:18;;;;;;;12.17;9.47;;;;;;;17.78;66.10;100328.45;253462;1107;116733;-71
2021/09/26 16:14:22;;;;;;;9.30;8.20;;;;;;;17.57;66.45;100332.98;253446;1107;116097;-68
2021/09/26 16:19:25;;;;;;;6.73;6.03;;;;;;;17.37;66.92;100333.74;254603;1101;116666;-69
2021/09/26 16:24:28;;;;;;;6.00;5.48;;;;;;;17.15;67.09;100336.61;253194;1107;114991;-69
2021/09/26 16:29:32;;;;;;;6.20;5.70;;;;;;;16.94;67.46;100337.59;253139;1107;115615;-69
2021/09/26 16:34:35;;;;;;;4.65;4.23;;;;;;;16.75;67.85;100337.23;254402;1102;115192;-69
2021/09/26 16:39:39;;;;;;;6.38;5.48;;;;;;;16.61;67.81;100349.48;253034;1106;115561;-69
2021/09/26 16:44:47;;;;;;;7.25;6.43;;;;;;;16.41;67.98;100352.05;253292;1107;115308;-68
2021/09/26 16:49:50;;;;;;;12.27;6.93;;;;;;;16.16;68.46;100349.98;253713;1103;115400;-69
2021/09/26 16:54:54;;;;;;;11.95;10.10;;;;;;;15.94;68.47;100352.72;253921;1106;115733;-69
2021/09/26 16:59:59;;;;;;;11.10;9.55;;;;;;;15.77;68.69;100352.03;253281;1107;115491;-69
2021/09/26 17:05:04;;;;;;;13.65;11.75;;;;;;;15.61;68.83;100353.73;253828;1107;203898;-70
2021/09/26 17:10:10;;;;;;;12.70;8.43;;;;;;;15.38;69.33;100370.11;252989;1107;116517;-69
2021/09/26 17:15:15;;;;;;;11.08;8.03;;;;;;;15.24;69.33;100374.25;253488;1107;115942;-69
2021/09/26 17:20:26;;;;;;;13.63;10.10;;;;;;;15.15;69.83;100377.36;253245;1106;116182;-68
2021/09/26 17:25:31;;;;;;;17.83;12.20;;;;;;;15.05;69.96;100377.22;253092;1107;115803;-71
2021/09/26 17:30:38;;;;;;;23.02;13.88;;;;;;;14.90;69.73;100378.90;253185;1107;115787;-71
2021/09/26 17:35:44;;;;;;;21.72;14.06;;;;;;;14.65;70.15;100372.11;255174;1107;118293;-72
2021/09/26 17:40:51;;;;;;;20.68;15.73;;;;;;;14.53;70.78;100367.89;253462;1102;116983;-69
2021/09/26 17:45:59;;;;;;;26.25;17.33;;;;;;;14.46;70.91;100366.17;254056;1107;115925;-70
2021/09/26 17:51:06;;;;;;;27.60;17.10;;;;;;;14.36;70.73;100360.64;255593;1107;116720;-70
2021/09/26 17:56:14;;;;;;;34.45;17.68;;;;;;;14.28;70.71;100366.41;256320;1106;116140;-69
2021/09/26 18:01:18;;;;;;;28.15;19.45;;;;;;;14.13;71.13;100364.27;255269;1106;117641;-68
2021/09/26 18:06:22;;;;;;;32.30;18.28;;;;;;;13.99;71.27;100356.80;253481;1106;116075;-68
2021/09/26 18:11:27;;;;;;;45.50;24.55;;;;;;;13.89;71.32;100361.97;253535;1104;116408;-68
2021/09/26 18:16:31;;;;;;;37.58;22.43;;;;;;;13.87;72.09;100362.20;254405;1107;116800;-69
2021/09/26 18:21:37;;;;;;;29.63;19.98;;;;;;;13.88;72.42;100368.38;253383;1107;116631;-69
2021/09/26 18:26:40;;;;;;;27.83;15.65;;;;;;;13.84;72.33;100378.77;253138;1107;115829;-69
2021/09/26 18:31:44;;;;;;;35.60;17.77;;;;;;;13.77;72.52;100376.22;253109;1107;115846;-68
2021/09/26 18:36:50;;;;;;;22.68;14.63;;;;;;;13.74;72.29;100370.56;253921;1103;116218;-68
2021/09/26 18:41:54;;;;;;;18.40;15.37;;;;;;;13.68;72.49;100366.97;253669;1107;115953;-67
2021/09/26 18:47:01;;;;;;;15.00;12.20;;;;;;;13.59;72.12;100372.94;253716;1106;115551;-67
2021/09/26 18:52:08;;;;;;;15.60;11.80;;;;;;;13.44;72.53;100370.80;253604;1107;208306;-67
2021/09/26 18:57:11;;;;;;;13.60;10.70;;;;;;;13.39;72.52;100374.18;253461;1103;116220;-69
2021/09/26 19:02:15;;;;;;;16.73;10.90;;;;;;;13.35;72.80;100374.88;253116;1107;115968;-69
2021/09/26 19:07:19;;;;;;;17.28;10.03;;;;;;;13.33;73.12;100375.12;253361;1107;117273;-69
2021/09/26 19:12:23;;;;;;;13.43;10.63;;;;;;;13.35;73.33;100367.66;253356;1107;116964;-69
2021/09/26 19:17:26;;;;;;;13.28;9.63;;;;;;;13.30;73.41;100375.59;254874;1107;116435;-69
2021/09/26 19:22:30;;;;;;;18.00;11.38;;;;;;;13.29;73.91;100373.15;253901;1107;116605;-72
2021/09/26 19:27:32;;;;;;;14.73;12.13;;;;;;;13.27;73.51;100377.92;252916;1107;116238;-68
2021/09/26 19:32:40;;;;;;;14.95;10.93;;;;;;;13.23;73.75;100379.45;255136;1107;116423;-69
2021/09/26 19:37:43;;;;;;;14.65;11.43;;;;;;;13.16;73.98;100379.56;253354;1107;116952;-68
2021/09/26 19:42:47;;;;;;;15.08;12.58;;;;;;;13.15;74.24;100389.45;252923;1107;116962;-71
2021/09/26 19:47:50;;;;;;;14.73;13.13;;;;;;;13.15;74.44;100386.78;253408;1107;116999;-67
2021/09/26 19:52:53;;;;;;;15.55;12.23;;;;;;;13.17;74.40;100389.23;253597;1106;118436;-70
2021/09/26 19:57:56;;;;;;;12.58;11.28;;;;;;;13.17;74.40;100389.23;253365;1107;116051;-71
2021/09/26 20:02:59;;;;;;;16.38;11.93;;;;;;;13.12;74.20;100387.25;253845;1107;116566;-69
2021/09/26 20:08:04;;;;;;;18.15;11.23;;;;;;;13.07;74.81;100397.03;253567;1106;116434;-69
2021/09/26 20:13:11;;;;;;;16.60;12.63;;;;;;;13.02;74.26;100397.73;254072;1103;116450;-68
2021/09/26 20:18:14;;;;;;;15.28;11.70;;;;;;;12.97;75.00;100392.26;254316;1103;116056;-68
2021/09/26 20:23:23;;;;;;;12.43;11.13;;;;;;;12.98;75.02;100395.75;254692;1103;116921;-68
2021/09/26 20:28:26;;;;;;;13.80;11.48;;;;;;;12.99;75.42;100392.84;253358;1107;117511;-69
2021/09/26 20:33:30;;;;;;;14.05;12.33;;;;;;;13.01;75.13;100387.25;254943;1107;116036;-67
2021/09/26 20:38:34;;;;;;;13.95;12.28;;;;;;;12.98;75.51;100391.21;254597;1107;117097;-68
2021/09/26 20:43:38;;;;;;;19.87;13.97;;;;;;;13.00;75.35;100391.80;254679;1107;115508;-67
2021/09/26 20:48:41;;;;;;;15.45;11.75;;;;;;;13.00;75.19;100390.98;255679;1103;116091;-66
2021/09/26 20:53:45;;;;;;;15.28;11.45;;;;;;;13.07;76.25;100400.52;254820;1107;116064;-67
2021/09/26 20:58:52;;;;;;;14.08;11.63;;;;;;;13.11;76.11;100408.90;253113;1103;116426;-68
2021/09/26 21:03:55;;;;;;;;;;;;;;;13.10;76.08;100417.97;254391;1107;116892;-68
2021/09/26 21:09:01;;;;;;;16.08;12.73;;;;;;;13.05;75.63;100420.53;254269;1106;103887;-69
2021/09/26 21:14:06;;;;;;;17.30;13.05;;;;;;;13.02;76.17;100419.14;253554;1102;116314;-69
2021/09/26 21:19:10;;;;;;;17.35;12.23;;;;;;;13.01;76.00;100420.19;253943;1107;115955;-68
2021/09/26 21:24:15;;;;;;;17.70;14.23;;;;;;;12.97;76.18;100426.23;253080;1102;116046;-69
2021/09/26 21:29:18;;;;;;;26.10;14.03;;;;;;;12.92;76.38;100416.22;253202;1107;195540;-68
2021/09/26 21:34:21;;;;;;;21.60;14.90;;;;;;;12.93;76.57;100414.36;253638;1107;115932;-70
2021/09/26 21:39:25;;;;;;;23.75;16.98;;;;;;;12.93;75.96;100412.50;253532;1107;116467;-69
2021/09/26 21:44:30;;;;;;;36.90;24.43;;;;;;;12.95;76.72;100401.56;253493;1107;116355;-73
2021/09/26 21:49:41;;;;;;;31.80;20.68;;;;;;;13.01;76.66;100405.98;254410;1107;116075;-74
2021/09/26 21:54:45;;;;;;;26.40;16.15;;;;;;;13.03;76.74;100412.73;253170;1107;116410;-72
2021/09/26 21:59:54;;;;;;;19.95;12.50;;;;;;;13.08;77.25;100407.50;256521;1107;115649;-74
2021/09/26 22:04:57;;;;;;;16.43;12.38;;;;;;;13.14;76.80;100403.89;254865;1101;116234;-74
2021/09/26 22:10:01;;;;;;;16.28;12.75;;;;;;;13.20;76.86;100406.68;253381;1107;116102;-73
2021/09/26 22:15:04;;;;;;;22.23;14.50;;;;;;;13.20;77.27;100393.30;254284;1107;115739;-76
2021/09/26 22:20:12;;;;;;;15.00;11.27;;;;;;;13.22;77.06;100392.02;254504;1106;115531;-74
2021/09/26 22:25:19;;;;;;;13.20;11.25;;;;;;;13.29;77.51;100394.56;253606;1106;116011;-75
2021/09/26 22:30:24;;;;;;;13.23;10.60;;;;;;;13.31;77.53;100398.64;254448;1107;115456;-67
2021/09/26 22:35:29;;;;;;;16.60;12.43;;;;;;;13.35;77.92;100405.16;254888;1106;115305;-69
2021/09/26 22:40:32;;;;;;;13.45;9.53;;;;;;;13.34;77.29;100400.84;253395;1106;115500;-67
2021/09/26 22:45:35;;;;;;;15.00;9.73;;;;;;;13.36;77.72;100389.91;254526;1107;115497;-69
2021/09/26 22:50:38;;;;;;;9.23;8.05;;;;;;;13.41;77.70;100382.79;254082;1100;115639;-68